createdAt,value
2022-09-20T00:01:40.423Z,94.39
2022-09-20T00:04:10.485Z,95.79
2022-09-20T00:06:38.726Z,94.55
2022-09-20T00:09:07.817Z,94.07
2022-09-20T00:11:41.838Z,94.78
2022-09-20T00:14:10.014Z,95.12
2022-09-20T00:16:41.416Z,93.16
2022-09-20T00:19:20.332Z,94.51
2022-09-20T00:21:48.565Z,93.58
2022-09-20T00:24:17.357Z,91.83
2022-09-20T00:26:45.584Z,94.08
2022-09-20T00:29:13.987Z,92.33
2022-09-20T00:31:43.098Z,91.92
2022-09-20T00:34:30.467Z,92.95
2022-09-20T00:36:58.779Z,93.23
2022-09-20T00:39:27.122Z,93.57
2022-09-20T00:41:55.570Z,91.55
2022-09-20T00:44:46.008Z,90.96
2022-09-20T00:47:25.002Z,91.57
2022-09-20T00:50:02.439Z,90.33
2022-09-20T00:52:32.604Z,91.58
2022-09-20T00:55:07.344Z,94.62
2022-09-20T00:57:38.762Z,95.00
2022-09-20T01:00:10.622Z,92.85
2022-09-20T01:02:46.805Z,93.76
2022-09-20T01:05:18.833Z,90.94
2022-09-20T01:07:50.778Z,90.88
2022-09-20T01:10:18.965Z,90.18
2022-09-20T01:12:51.876Z,92.20
2022-09-20T01:15:23.431Z,92.76
2022-09-20T01:17:55.651Z,92.00
2022-09-20T01:20:26.651Z,89.02
2022-09-20T01:23:45.682Z,89.23
2022-09-20T01:26:32.731Z,88.93
2022-09-20T01:29:41.702Z,87.94
2022-09-20T01:32:19.706Z,87.70
2022-09-20T01:34:59.271Z,87.25
2022-09-20T01:37:43.328Z,88.08
2022-09-20T01:40:43.233Z,88.48
2022-09-20T01:43:34.370Z,88.49
2022-09-20T01:46:28.348Z,88.71
2022-09-20T01:49:24.521Z,90.85
2022-09-20T01:52:30.089Z,88.50
2022-09-20T01:55:47.374Z,87.75
2022-09-20T01:58:30.454Z,88.29
2022-09-20T02:01:42.941Z,87.39
2022-09-20T02:04:37.848Z,87.91
2022-09-20T02:08:01.770Z,86.81
2022-09-20T02:11:25.602Z,87.34
2022-09-20T02:14:02.638Z,86.80
2022-09-20T02:17:01.819Z,85.44
2022-09-20T02:19:50.024Z,85.78
2022-09-20T02:22:44.794Z,84.51
2022-09-20T02:25:37.173Z,84.29
2022-09-20T02:28:10.985Z,84.25
2022-09-20T02:30:51.160Z,84.99
2022-09-20T02:33:43.522Z,84.30
2022-09-20T02:36:33.310Z,84.99
2022-09-20T02:39:27.892Z,85.42
2022-09-20T02:42:06.168Z,88.51
2022-09-20T02:45:11.841Z,88.40
2022-09-20T02:47:43.992Z,88.59
2022-09-20T02:50:39.904Z,91.00
2022-09-20T02:53:37.940Z,90.41
2022-09-20T02:56:54.222Z,91.96
2022-09-20T02:59:46.974Z,92.42
2022-09-20T03:02:52.747Z,94.78
2022-09-20T03:05:52.014Z,94.78
2022-09-20T03:08:47.781Z,93.41
2022-09-20T03:11:51.498Z,92.81
2022-09-20T03:14:32.518Z,94.45
2022-09-20T03:17:48.727Z,93.36
2022-09-20T03:20:57.437Z,92.72
2022-09-20T03:24:06.151Z,92.94
2022-09-20T03:26:52.507Z,92.50
2022-09-20T03:29:48.450Z,92.60
2022-09-20T03:32:37.460Z,93.61
2022-09-20T03:35:43.627Z,92.93
2022-09-20T03:38:15.743Z,93.98
2022-09-20T03:41:24.334Z,94.14
2022-09-20T03:43:58.413Z,92.74
2022-09-20T03:46:47.220Z,94.19
2022-09-20T03:49:52.934Z,93.02
2022-09-20T03:53:14.768Z,93.27
2022-09-20T03:56:20.722Z,93.84
2022-09-20T03:59:13.768Z,94.64
2022-09-20T04:02:20.276Z,93.89
2022-09-20T04:05:00.974Z,93.69
2022-09-20T04:08:04.435Z,93.45
2022-09-20T04:11:00.393Z,93.42
2022-09-20T04:13:56.728Z,93.63
2022-09-20T04:16:46.349Z,93.50
2022-09-20T04:19:42.158Z,94.94
2022-09-20T04:22:10.530Z,94.47
2022-09-20T04:25:04.071Z,93.25
2022-09-20T04:27:46.100Z,93.40
2022-09-20T04:30:30.318Z,94.08
2022-09-20T04:33:25.101Z,96.14
2022-09-20T04:36:24.948Z,95.27
2022-09-20T04:39:25.797Z,96.54
2022-09-20T04:42:54.918Z,97.79
2022-09-20T04:46:03.542Z,96.71
2022-09-20T04:49:10.904Z,97.46
2022-09-20T04:52:34.457Z,97.03
2022-09-20T04:55:45.145Z,96.98
2022-09-20T04:58:37.998Z,93.63
2022-09-20T05:01:16.955Z,94.00
2022-09-20T05:04:31.968Z,92.85
2022-09-20T05:07:47.209Z,94.98
2022-09-20T05:10:41.158Z,97.48
2022-09-20T05:13:46.062Z,97.15
2022-09-20T05:16:40.699Z,96.38
2022-09-20T05:19:48.414Z,95.95
2022-09-20T05:22:45.769Z,96.72
2022-09-20T05:25:47.500Z,96.64
2022-09-20T05:28:49.734Z,96.95
2022-09-20T05:31:56.346Z,96.34
2022-09-20T05:34:40.325Z,94.11
2022-09-20T05:37:36.836Z,95.19
2022-09-20T05:41:01.339Z,96.41
2022-09-20T05:44:02.538Z,94.50
2022-09-20T05:46:54.640Z,96.26
2022-09-20T05:50:39.455Z,94.31
2022-09-20T05:53:41.251Z,96.59
2022-09-20T05:57:01.252Z,95.14
2022-09-20T06:00:09.290Z,96.43
2022-09-20T06:03:23.178Z,97.37
2022-09-20T06:06:23.229Z,96.81
2022-09-20T06:09:22.408Z,95.32
2022-09-20T06:12:08.822Z,96.54
2022-09-20T06:15:12.163Z,96.51
2022-09-20T06:18:13.846Z,95.42
2022-09-20T06:20:59.079Z,94.71
2022-09-20T06:23:28.043Z,95.61
2022-09-20T06:26:10.909Z,95.64
2022-09-20T06:28:46.554Z,95.70
2022-09-20T06:31:17.080Z,95.38
2022-09-20T06:33:58.820Z,93.12
2022-09-20T06:36:51.953Z,93.67
2022-09-20T06:40:10.067Z,92.95
2022-09-20T06:42:38.558Z,92.71
2022-09-20T06:45:07.057Z,93.05
2022-09-20T06:47:38.617Z,93.33
2022-09-20T06:50:13.503Z,91.85
2022-09-20T06:52:43.058Z,92.26
2022-09-20T06:55:29.321Z,91.83
2022-09-20T06:57:58.118Z,91.06
2022-09-20T07:00:26.236Z,91.62
2022-09-20T07:02:56.777Z,91.20
2022-09-20T07:05:26.642Z,91.10
2022-09-20T07:07:59.116Z,90.11
2022-09-20T07:10:28.218Z,90.32
2022-09-20T07:13:02.218Z,90.04
2022-09-20T07:15:35.025Z,89.37
2022-09-20T07:18:03.205Z,89.87
2022-09-20T07:20:31.347Z,88.30
2022-09-20T07:22:59.544Z,88.81
2022-09-20T07:25:27.781Z,88.92
2022-09-20T07:27:56.370Z,89.23
2022-09-20T07:30:25.086Z,87.31
2022-09-20T07:32:54.737Z,85.37
2022-09-20T07:35:23.272Z,86.71
2022-09-20T07:37:58.159Z,86.64
2022-09-20T07:40:26.974Z,87.12
2022-09-20T07:42:57.834Z,87.07
2022-09-20T07:45:26.219Z,85.61
2022-09-20T07:47:54.677Z,85.57
2022-09-20T07:50:22.904Z,86.46
2022-09-20T07:52:51.138Z,85.66
2022-09-20T07:55:19.317Z,84.94
2022-09-20T07:57:47.455Z,85.61
2022-09-20T08:00:16.066Z,86.71
2022-09-20T08:02:45.562Z,85.71
2022-09-20T08:05:13.706Z,85.23
2022-09-20T08:07:41.869Z,85.61
2022-09-20T08:10:10.273Z,85.09
2022-09-20T08:15:26.597Z,85.07
2022-09-20T08:17:54.794Z,84.76
2022-09-20T08:20:22.950Z,83.52
2022-09-20T08:23:12.724Z,84.49
2022-09-20T08:25:39.507Z,83.53
2022-09-20T08:28:07.650Z,83.01
2022-09-20T08:30:35.847Z,82.28
2022-09-20T08:33:04.899Z,81.29
2022-09-20T08:35:38.241Z,81.03
2022-09-20T08:41:04.568Z,80.00
2022-09-20T08:43:45.607Z,79.35
2022-09-20T08:46:26.039Z,78.25
2022-09-20T08:48:57.673Z,78.95
2022-09-20T08:51:34.562Z,77.26
2022-09-20T08:54:04.542Z,78.01
2022-09-20T08:56:37.284Z,78.38
2022-09-20T08:59:14.025Z,75.67
2022-09-20T09:01:42.322Z,75.94
2022-09-20T09:04:24.185Z,75.71
2022-09-20T09:06:52.816Z,73.63
2022-09-20T09:09:27.890Z,74.08
2022-09-20T09:11:58.844Z,74.31
2022-09-20T09:14:55.047Z,72.48
2022-09-20T09:17:30.135Z,74.76
2022-09-20T09:20:22.526Z,74.39
2022-09-20T09:23:09.063Z,73.40
2022-09-20T09:25:40.026Z,73.52
2022-09-20T09:28:08.021Z,72.73
2022-09-20T09:30:46.940Z,73.19
2022-09-20T09:33:31.868Z,71.01
2022-09-20T09:36:09.045Z,72.74
2022-09-20T09:38:41.526Z,71.68
2022-09-20T09:41:24.442Z,71.89
2022-09-20T09:44:20.563Z,70.01
2022-09-20T09:46:50.473Z,71.13
2022-09-20T09:49:20.068Z,70.59
2022-09-20T09:52:13.841Z,71.22
2022-09-20T09:55:03.489Z,71.94
2022-09-20T09:58:04.139Z,72.49
2022-09-20T10:00:35.821Z,71.28
2022-09-20T10:03:34.368Z,71.61
2022-09-20T10:06:24.323Z,70.36
2022-09-20T10:09:42.790Z,70.61
2022-09-20T10:12:32.945Z,69.84
2022-09-20T10:15:26.813Z,66.82
2022-09-20T10:18:31.561Z,70.42
2022-09-20T10:21:30.395Z,69.50
2022-09-20T10:24:17.739Z,66.94
2022-09-20T10:27:07.220Z,67.35
2022-09-20T10:30:10.927Z,65.14
2022-09-20T10:33:18.479Z,65.89
2022-09-20T10:36:12.932Z,65.44
2022-09-20T10:39:25.264Z,64.81
2022-09-20T10:42:27.711Z,64.01
2022-09-20T10:45:29.013Z,62.80
2022-09-20T10:48:31.026Z,62.71
2022-09-20T10:51:25.227Z,63.50
2022-09-20T10:54:20.199Z,63.18
2022-09-20T10:56:56.274Z,65.44
2022-09-20T11:00:02.931Z,65.61
2022-09-20T11:02:53.425Z,66.97
2022-09-20T11:05:41.002Z,69.01
2022-09-20T11:08:25.484Z,67.45
2022-09-20T11:11:02.929Z,68.60
2022-09-20T11:13:59.814Z,70.62
2022-09-20T11:16:48.079Z,69.90
2022-09-20T11:19:41.106Z,70.20
2022-09-20T11:22:29.173Z,70.51
2022-09-20T11:25:08.361Z,72.14
2022-09-20T11:28:16.303Z,75.01
2022-09-20T11:31:04.087Z,78.77
2022-09-20T11:33:44.370Z,82.87
2022-09-20T11:36:39.532Z,84.91
2022-09-20T11:39:29.763Z,88.63
2022-09-20T11:42:01.784Z,84.37
2022-09-20T11:44:31.050Z,84.13
2022-09-20T11:47:36.604Z,82.05
2022-09-20T11:50:47.532Z,82.20
2022-09-20T11:53:40.577Z,80.96
2022-09-20T11:56:20.425Z,79.47
2022-09-20T11:58:55.969Z,80.22
2022-09-20T12:01:39.686Z,79.13
2022-09-20T12:04:34.652Z,79.25
2022-09-20T12:07:25.933Z,77.61
2022-09-20T12:10:21.859Z,78.47
2022-09-20T12:13:01.128Z,77.87
2022-09-20T12:15:39.105Z,77.12
2022-09-20T12:18:34.562Z,76.16
2022-09-20T12:21:15.598Z,77.10
2022-09-20T12:23:46.847Z,78.88
2022-09-20T12:26:21.094Z,80.31
2022-09-20T12:28:55.812Z,81.12
2022-09-20T12:31:29.807Z,77.54
2022-09-20T12:34:27.224Z,77.00
2022-09-20T12:36:58.993Z,75.91
2022-09-20T12:39:38.486Z,73.07
2022-09-20T12:42:12.553Z,79.90
2022-09-20T12:44:59.023Z,74.58
2022-09-20T12:47:33.491Z,81.31
2022-09-20T12:50:33.704Z,76.62
2022-09-20T12:53:04.611Z,77.61
2022-09-20T12:56:03.497Z,76.65
2022-09-20T12:58:45.328Z,77.71
2022-09-20T13:01:14.572Z,75.80
2022-09-20T13:04:18.661Z,80.13
2022-09-20T13:07:08.412Z,79.68
2022-09-20T13:09:36.858Z,75.07
2022-09-20T13:12:05.844Z,74.50
2022-09-20T13:14:34.904Z,74.07
2022-09-20T13:17:09.730Z,72.88
2022-09-20T13:22:48.468Z,73.63
2022-09-20T13:25:22.003Z,79.07
2022-09-20T13:28:06.808Z,75.68
2022-09-20T13:30:35.494Z,72.80
2022-09-20T13:33:24.253Z,73.17
2022-09-20T13:35:58.768Z,70.21
2022-09-20T13:38:31.930Z,70.63
2022-09-20T13:41:09.496Z,68.66
2022-09-20T13:43:38.102Z,69.40
2022-09-20T13:46:14.494Z,70.17
2022-09-20T13:48:47.333Z,70.41
2022-09-20T13:51:24.098Z,68.51
2022-09-20T13:53:53.104Z,67.51
2022-09-20T13:56:29.986Z,68.90
2022-09-20T13:59:05.266Z,68.45
2022-09-20T14:01:36.142Z,66.58
2022-09-20T14:04:16.904Z,67.24
2022-09-20T14:06:46.043Z,67.70
2022-09-20T14:09:41.171Z,67.55
2022-09-20T14:12:12.667Z,68.41
2022-09-20T14:14:42.191Z,68.65
2022-09-20T14:17:19.290Z,69.54
2022-09-20T14:19:51.615Z,71.32
2022-09-20T14:22:27.158Z,70.26
2022-09-20T14:25:20.952Z,68.26
2022-09-20T14:27:49.139Z,69.57
2022-09-20T14:30:36.298Z,67.83
2022-09-20T14:33:15.343Z,67.31
2022-09-20T14:35:52.321Z,67.36
2022-09-20T14:38:26.517Z,65.74
2022-09-20T14:40:54.885Z,65.04
2022-09-20T14:43:35.919Z,65.16
2022-09-20T14:49:33.825Z,67.52
2022-09-20T14:52:23.551Z,66.42
2022-09-20T14:55:13.783Z,65.27
2022-09-20T14:57:42.823Z,64.51
2022-09-20T15:00:15.281Z,66.55
2022-09-20T15:02:46.497Z,65.23
2022-09-20T15:05:26.076Z,64.74
2022-09-20T15:07:57.350Z,64.14
2022-09-20T15:10:25.668Z,67.20
2022-09-20T15:12:53.852Z,66.34
2022-09-20T15:15:22.036Z,65.18
2022-09-20T15:17:50.438Z,65.40
2022-09-20T15:20:24.346Z,67.12
2022-09-20T15:22:52.877Z,67.07
2022-09-20T15:25:22.154Z,67.40
2022-09-20T15:27:53.531Z,67.70
2022-09-20T15:30:22.480Z,68.64
2022-09-20T15:32:52.441Z,68.43
2022-09-20T15:35:20.565Z,68.22
2022-09-20T15:37:49.005Z,67.22
2022-09-20T15:40:17.487Z,66.92
2022-09-20T15:42:46.418Z,66.94
2022-09-20T15:45:14.869Z,67.28
2022-09-20T15:47:43.024Z,67.25
2022-09-20T15:50:11.166Z,68.94
2022-09-20T15:52:41.196Z,69.67
2022-09-20T15:55:10.024Z,67.69
2022-09-20T15:57:41.929Z,66.56
2022-09-20T16:00:10.912Z,65.25
2022-09-20T16:02:39.200Z,67.94
2022-09-20T16:05:10.071Z,66.68
2022-09-20T16:07:38.376Z,66.70
2022-09-20T16:10:07.354Z,67.77
2022-09-20T16:12:35.600Z,70.43
2022-09-20T16:15:03.965Z,74.34
2022-09-20T16:17:50.676Z,77.52
2022-09-20T16:20:19.285Z,77.64
2022-09-20T16:22:47.770Z,78.44
2022-09-20T16:25:15.869Z,78.54
2022-09-20T16:27:43.859Z,79.94
2022-09-20T16:30:12.451Z,81.30
2022-09-20T16:32:40.808Z,80.95
2022-09-20T16:35:09.137Z,80.15
2022-09-20T16:37:39.334Z,81.20
2022-09-20T16:40:10.734Z,79.43
2022-09-20T16:42:39.047Z,80.63
2022-09-20T16:45:07.566Z,78.77
2022-09-20T16:47:41.272Z,77.42
2022-09-20T16:50:09.985Z,79.13
2022-09-20T16:52:39.094Z,75.75
2022-09-20T16:55:08.554Z,74.99
2022-09-20T16:57:38.370Z,73.69
2022-09-20T17:00:07.444Z,73.62
2022-09-20T17:02:36.167Z,73.43
2022-09-20T17:05:04.777Z,73.46
2022-09-20T17:07:33.698Z,73.45
2022-09-20T17:10:01.967Z,72.54
2022-09-20T17:12:33.433Z,72.54
2022-09-20T17:15:02.154Z,73.04
2022-09-20T17:17:30.476Z,72.85
2022-09-20T17:19:58.729Z,73.01
2022-09-20T17:22:27.712Z,73.33
2022-09-20T17:24:56.139Z,73.25
2022-09-20T17:27:24.516Z,73.74
2022-09-20T17:29:53.588Z,73.09
2022-09-20T17:32:21.777Z,72.71
2022-09-20T17:34:50.059Z,73.33
2022-09-20T17:37:18.363Z,71.27
2022-09-20T17:39:46.488Z,69.28
2022-09-20T17:42:14.626Z,70.16
2022-09-20T17:44:42.782Z,73.41
2022-09-20T17:47:10.939Z,74.02
2022-09-20T17:49:40.720Z,72.88
2022-09-20T17:52:10.013Z,73.01
2022-09-20T17:54:38.166Z,73.76
2022-09-20T17:57:06.312Z,72.33
2022-09-20T17:59:34.511Z,70.92
2022-09-20T18:02:02.706Z,71.66
2022-09-20T18:04:30.828Z,72.94
2022-09-20T18:06:58.985Z,73.78
2022-09-20T18:09:27.754Z,74.07
2022-09-20T18:11:56.596Z,73.97
2022-09-20T18:14:27.703Z,74.18
2022-09-20T18:17:00.998Z,72.98
2022-09-20T18:19:33.879Z,73.31
2022-09-20T18:22:03.540Z,74.12
2022-09-20T18:24:32.153Z,74.15
2022-09-20T18:27:04.501Z,74.02
2022-09-20T18:29:36.898Z,74.00
2022-09-20T18:32:05.477Z,74.25
2022-09-20T18:34:34.166Z,74.44
2022-09-20T18:37:03.861Z,75.92
2022-09-20T18:39:34.833Z,74.04
2022-09-20T18:42:04.096Z,74.35
2022-09-20T18:44:34.060Z,74.35
2022-09-20T18:47:04.038Z,77.97
2022-09-20T18:49:33.408Z,75.53
2022-09-20T18:52:02.889Z,75.96
2022-09-20T18:54:32.207Z,75.48
2022-09-20T18:57:01.084Z,74.48
2022-09-20T18:59:29.569Z,75.46
2022-09-20T19:02:34.808Z,76.42
2022-09-20T19:05:17.692Z,76.36
2022-09-20T19:07:54.510Z,76.24
2022-09-20T19:10:43.822Z,76.86
2022-09-20T19:13:34.471Z,75.59
2022-09-20T19:16:27.849Z,75.83
2022-09-20T19:19:14.986Z,77.80
2022-09-20T19:22:14.503Z,77.16
2022-09-20T19:24:42.567Z,76.59
2022-09-20T19:27:13.457Z,76.48
2022-09-20T19:29:42.289Z,78.82
2022-09-20T19:32:18.781Z,78.93
2022-09-20T19:34:52.218Z,77.89
2022-09-20T19:37:51.340Z,79.95
2022-09-20T19:40:35.692Z,79.07
2022-09-20T19:43:53.090Z,77.44
2022-09-20T19:46:42.616Z,77.89
2022-09-20T19:49:20.790Z,78.68
2022-09-20T19:51:49.539Z,78.23
2022-09-20T19:54:18.822Z,79.00
2022-09-20T19:56:58.795Z,80.53
2022-09-20T19:59:28.547Z,82.09
2022-09-20T20:01:57.678Z,79.94
2022-09-20T20:04:26.380Z,81.53
2022-09-20T20:07:34.041Z,80.23
2022-09-20T20:10:34.726Z,79.89
2022-09-20T20:13:40.941Z,81.96
2022-09-20T20:16:20.816Z,81.19
2022-09-20T20:19:30.205Z,80.16
2022-09-20T20:22:22.529Z,78.79
2022-09-20T20:24:53.347Z,78.93
2022-09-20T20:27:21.513Z,79.34
2022-09-20T20:29:49.746Z,78.77
2022-09-20T20:32:18.443Z,79.24
2022-09-20T20:34:46.952Z,78.21
2022-09-20T20:37:16.160Z,79.49
2022-09-20T20:39:44.326Z,77.89
2022-09-20T20:42:12.908Z,79.59
2022-09-20T20:44:42.175Z,78.11
2022-09-20T20:47:11.268Z,78.41
2022-09-20T20:49:39.467Z,78.19
2022-09-20T20:52:08.980Z,78.36
2022-09-20T20:54:37.540Z,79.24
2022-09-20T20:57:05.689Z,78.40
2022-09-20T20:59:33.840Z,78.01
2022-09-20T21:02:07.110Z,76.95
2022-09-20T21:04:37.094Z,78.66
2022-09-20T21:07:05.630Z,77.77
2022-09-20T21:09:33.798Z,78.25
2022-09-20T21:12:03.133Z,78.82
2022-09-20T21:14:33.868Z,78.41
2022-09-20T21:17:02.528Z,79.65
2022-09-20T21:19:30.679Z,77.84
2022-09-20T21:21:58.827Z,79.13
2022-09-20T21:24:27.001Z,77.13
2022-09-20T21:26:55.220Z,76.22
2022-09-20T21:29:23.439Z,77.90
2022-09-20T21:31:51.688Z,76.79
2022-09-20T21:34:19.822Z,77.48
2022-09-20T21:36:48.292Z,78.11
2022-09-20T21:39:16.446Z,79.07
2022-09-20T21:41:46.788Z,78.51
2022-09-20T21:44:15.004Z,76.40
2022-09-20T21:46:43.191Z,77.31
2022-09-20T21:49:13.128Z,78.34
2022-09-20T21:51:43.115Z,81.48
2022-09-20T21:54:11.643Z,81.13
2022-09-20T21:56:41.310Z,79.71
2022-09-20T21:59:09.932Z,80.55
2022-09-20T22:01:40.419Z,84.62
2022-09-20T22:04:12.178Z,87.06
2022-09-20T22:06:43.705Z,85.03
2022-09-20T22:09:18.059Z,83.68
2022-09-20T22:11:48.751Z,83.23
2022-09-20T22:14:19.768Z,82.48
2022-09-20T22:16:51.327Z,81.78
2022-09-20T22:19:19.707Z,84.31
2022-09-20T22:21:51.036Z,82.80
2022-09-20T22:24:19.367Z,82.92
2022-09-20T22:26:50.964Z,81.91
2022-09-20T22:29:19.670Z,84.90
2022-09-20T22:31:50.169Z,82.65
2022-09-20T22:34:21.493Z,81.35
2022-09-20T22:36:50.598Z,81.14
2022-09-20T22:39:18.822Z,81.13
2022-09-20T22:41:48.082Z,80.75
2022-09-20T22:44:16.503Z,81.15
2022-09-20T22:46:44.772Z,81.46
2022-09-20T22:49:13.184Z,81.94
2022-09-20T22:51:41.526Z,80.91
2022-09-20T22:54:12.120Z,81.41
2022-09-20T22:56:43.559Z,80.53
2022-09-20T22:59:14.407Z,80.33
2022-09-20T23:01:45.713Z,81.48
2022-09-20T23:04:20.297Z,79.78
2022-09-20T23:06:55.083Z,79.56
2022-09-20T23:09:28.386Z,79.30
2022-09-20T23:11:56.664Z,77.80
2022-09-20T23:14:24.999Z,78.79
2022-09-20T23:16:53.460Z,79.15
2022-09-20T23:19:21.756Z,78.72
2022-09-20T23:21:50.040Z,78.18
2022-09-20T23:24:18.459Z,78.07
2022-09-20T23:26:47.000Z,78.09
2022-09-20T23:29:17.122Z,77.75
2022-09-20T23:31:47.534Z,77.37
2022-09-20T23:34:17.589Z,78.16
2022-09-20T23:36:46.699Z,78.56
2022-09-20T23:39:15.727Z,76.85
2022-09-20T23:41:49.900Z,78.57
2022-09-20T23:44:18.494Z,77.15
2022-09-20T23:46:46.735Z,78.00
2022-09-20T23:49:15.061Z,77.99
2022-09-20T23:51:43.238Z,77.71
2022-09-20T23:54:11.505Z,78.54
2022-09-20T23:56:40.891Z,78.64
2022-09-20T23:59:09.167Z,79.43
